Naples, Florida
Current Conditions -  °F | °C
As of 10:53 AM on Friday 19 Dec 2014 (Local Time) from KAPF Reporting Station
Clear Clear  
Wind Chill: 21°   Ceiling: Unl
Heat Index: 21°   Visibility: 10mi
Dew Point: 10°   Wind: 8mph
Humidity: 49%   Direction: 40°NE
Pressure: 30.12"   Gusts: NA
Location:  26.14°N, 81.79°W
Report Text: KAPF 191553Z 04007KT 10SM CLR 21/10 A3012 RMK AO2 SLP198 T02110100
Loading
Personal Weather Stations






























Interactive Weather Map New forecast layout! Learn more

10-Day Weather Forecast

Advertisements
Track Severe Weather on mobile